createdAt,value
2022-11-02T00:06:48.690Z,2.321070234113712
2022-11-02T00:14:47.453Z,2.197324414715719
2022-11-02T00:30:42.937Z,1.785953177257525
2022-11-02T00:38:23.079Z,2.9899665551839463
2022-11-02T00:45:51.987Z,2.1638795986622075
2022-11-02T00:53:30.914Z,1.3846153846153846
2022-11-02T01:01:12.334Z,2.3043478260869565
2022-11-02T01:09:49.822Z,2.5016722408026757
2022-11-02T01:17:56.493Z,2.488294314381271
2022-11-02T01:26:55.778Z,1.8026755852842808
2022-11-02T01:34:39.231Z,2.0635451505016724
2022-11-02T01:42:16.814Z,2.3545150501672243
2022-11-02T01:49:41.020Z,2.25752508361204
2022-11-02T01:57:15.155Z,2.274247491638796
2022-11-02T02:18:07.230Z,1.9030100334448161
2022-11-02T02:31:00.483Z,2.6254180602006687
2022-11-02T02:39:08.684Z,2.3344481605351173
2022-11-02T02:47:11.731Z,2.4414715719063547
2022-11-02T02:55:07.487Z,1.7290969899665551
2022-11-02T03:02:56.179Z,2.702341137123746
2022-11-02T03:11:01.535Z,2.117056856187291
2022-11-02T03:18:45.090Z,1.6688963210702341
2022-11-02T03:26:42.819Z,2.096989966555184
2022-11-02T03:34:14.328Z,2.150501672240803
2022-11-02T03:44:29.398Z,1.7123745819397993
2022-11-02T03:52:26.490Z,2.37123745819398
2022-11-02T04:04:17.422Z,2.7558528428093645
2022-11-02T04:12:03.321Z,1.785953177257525
2022-11-02T04:19:49.604Z,2.6555183946488294
2022-11-02T04:27:29.640Z,1.31438127090301
2022-11-02T04:35:12.214Z,1.7926421404682273
2022-11-02T04:42:51.517Z,2.5986622073578594
2022-11-02T04:50:16.183Z,2.3277591973244145
2022-11-02T04:57:59.433Z,1.7591973244147157
2022-11-02T05:11:46.005Z,1.6822742474916388
2022-11-02T05:19:48.377Z,1.705685618729097
2022-11-02T05:37:06.256Z,3.3043478260869565
2022-11-02T05:44:44.776Z,3.82943143812709
2022-11-02T05:59:50.827Z,3.8461538461538463
2022-11-02T06:07:38.037Z,3.8662207357859533
2022-11-02T06:15:26.183Z,2.4448160535117056
2022-11-02T06:24:06.070Z,2.471571906354515
2022-11-02T06:32:22.562Z,2.668896321070234
2022-11-02T06:40:11.814Z,1.6722408026755853
2022-11-02T06:49:00.304Z,2.100334448160535
2022-11-02T06:58:57.929Z,2.0301003344481607
2022-11-02T07:28:45.193Z,1.9832775919732442
2022-11-02T07:50:34.354Z,2.3812709030100336
2022-11-02T07:57:35.790Z,2.3846153846153846
2022-11-02T08:04:49.187Z,2.608695652173913
2022-11-02T08:11:16.669Z,1.9030100334448161
2022-11-02T08:17:43.889Z,2.5050167224080266
2022-11-02T08:24:24.769Z,1.7759197324414715
2022-11-02T08:30:53.301Z,2.016722408026756
2022-11-02T08:39:04.295Z,2.6220735785953178
2022-11-02T08:45:53.768Z,2.839464882943144
2022-11-02T08:52:30.007Z,2.709030100334448
2022-11-02T09:01:02.842Z,1.882943143812709
2022-11-02T09:07:31.463Z,2.0133779264214047
2022-11-02T09:14:00.517Z,1.9264214046822743
2022-11-02T09:20:29.915Z,2.060200668896321
2022-11-02T09:34:46.743Z,1.8227424749163879
2022-11-02T09:41:15.964Z,2.42809364548495
2022-11-02T09:53:09.659Z,3.274247491638796
2022-11-02T09:59:36.719Z,1.879598662207358
2022-11-02T10:06:04.754Z,2.4581939799331103
2022-11-02T10:15:03.126Z,1.7391304347826086
2022-11-02T10:26:54.250Z,2.160535117056856
2022-11-02T10:38:33.503Z,2.100334448160535
2022-11-02T10:58:40.495Z,1.0702341137123745
2022-11-02T11:05:08.710Z,0.8160535117056856
2022-11-02T11:12:15.209Z,1.645484949832776
2022-11-02T11:25:57.830Z,0.8294314381270903
2022-11-02T11:32:29.828Z,0.8561872909698997
2022-11-02T11:43:01.594Z,0.8394648829431438
2022-11-02T11:49:47.966Z,0.9866220735785953
2022-11-02T11:56:24.979Z,0.8662207357859532
2022-11-02T12:02:53.556Z,1.193979933110368
2022-11-02T12:13:14.134Z,0.9431438127090301
2022-11-02T12:19:43.457Z,1.0635451505016722
2022-11-02T12:26:23.101Z,1.3578595317725752
2022-11-02T12:32:50.119Z,1.5518394648829432
2022-11-02T12:41:54.909Z,1.508361204013378
2022-11-02T12:48:23.123Z,1.431438127090301
2022-11-02T12:54:51.003Z,1.3311036789297659
2022-11-02T13:04:38.694Z,1.214046822742475
2022-11-02T13:11:08.992Z,1.3377926421404682
2022-11-02T13:17:37.396Z,1.0234113712374582
2022-11-02T13:24:14.736Z,0.9933110367892977
2022-11-02T13:30:46.142Z,1.4749163879598661
2022-11-02T13:37:13.437Z,1.1304347826086956
2022-11-02T13:43:41.392Z,0.9966555183946488
2022-11-02T13:50:08.895Z,0.7692307692307693
2022-11-02T13:56:37.896Z,1.1705685618729098
2022-11-02T14:03:08.684Z,0.8294314381270903
2022-11-02T14:09:36.604Z,1.1070234113712374
2022-11-02T14:16:05.517Z,0.9866220735785953
2022-11-02T14:22:36.772Z,0.6889632107023411
2022-11-02T14:29:08.286Z,0.7090301003344481
2022-11-02T14:44:46.055Z,0.38461538461538464
2022-11-02T14:51:14.892Z,0.7792642140468228
2022-11-02T14:57:41.994Z,1.2441471571906355
2022-11-02T15:04:12.393Z,0.9431438127090301
2022-11-02T15:10:39.624Z,1.2809364548494984
2022-11-02T15:17:06.610Z,1.3812709030100334
2022-11-02T15:23:50.336Z,2.0
2022-11-02T15:30:17.712Z,2.0702341137123748
2022-11-02T15:36:47.880Z,1.9030100334448161
2022-11-02T15:43:15.839Z,2.4347826086956523
2022-11-02T15:55:26.258Z,4.377926421404682
2022-11-02T16:01:53.848Z,5.561872909698996
2022-11-02T16:08:21.300Z,4.581939799331104
2022-11-02T16:14:50.722Z,5.5719063545150505
2022-11-02T16:26:37.762Z,14.558528428093645
2022-11-02T16:36:04.515Z,4.969899665551839
2022-11-02T16:42:33.294Z,4.775919732441472
2022-11-02T16:49:01.711Z,6.2675585284280935
2022-11-02T16:55:29.580Z,8.618729096989966
2022-11-02T17:08:09.356Z,15.755852842809364
2022-11-02T17:14:42.902Z,12.688963210702342
2022-11-02T17:21:11.965Z,7.48494983277592
2022-11-02T17:28:35.147Z,5.491638795986622
2022-11-02T17:39:58.550Z,8.622073578595318
2022-11-02T17:52:37.775Z,7.036789297658863
2022-11-02T17:59:06.630Z,6.016722408026756
2022-11-02T18:05:33.646Z,4.839464882943144
2022-11-02T18:12:02.934Z,6.829431438127091
2022-11-02T18:18:32.126Z,8.103678929765886
2022-11-02T18:28:05.343Z,7.494983277591973
2022-11-02T18:39:52.992Z,8.528428093645484
2022-11-02T18:50:36.110Z,6.444816053511706
2022-11-02T18:58:54.358Z,7.688963210702341
2022-11-02T19:07:10.050Z,7.424749163879599
2022-11-02T19:14:48.380Z,9.481605351170568
2022-11-02T19:27:33.008Z,7.254180602006689
2022-11-02T19:41:13.621Z,5.51505016722408
2022-11-02T19:47:42.155Z,6.046822742474917
2022-11-02T19:56:47.531Z,5.311036789297659
2022-11-02T20:03:16.867Z,5.719063545150502
2022-11-02T20:09:46.127Z,5.8762541806020065
2022-11-02T20:16:15.368Z,5.913043478260869
2022-11-02T20:26:46.808Z,7.956521739130435
2022-11-02T20:33:15.506Z,7.816053511705686
2022-11-02T20:41:55.472Z,7.187290969899665
2022-11-02T21:02:37.035Z,6.224080267558528
2022-11-02T21:09:12.075Z,5.418060200668896
2022-11-02T21:15:42.247Z,5.1438127090301
2022-11-02T21:22:14.195Z,6.478260869565218
2022-11-02T21:28:54.998Z,5.956521739130435
2022-11-02T21:35:23.350Z,5.394648829431438
2022-11-02T21:46:25.869Z,5.3879598662207355
2022-11-02T21:57:03.690Z,6.107023411371237
2022-11-02T22:03:35.161Z,6.51505016722408
2022-11-02T22:10:20.525Z,6.110367892976589
2022-11-02T22:16:51.547Z,7.133779264214047
2022-11-02T22:23:47.773Z,5.498327759197324
2022-11-02T22:30:19.434Z,5.127090301003345
2022-11-02T22:36:52.764Z,5.903010033444816
2022-11-02T22:43:21.261Z,5.752508361204013
2022-11-02T22:56:39.033Z,5.344481605351171
2022-11-02T23:05:38.693Z,7.173913043478261
2022-11-02T23:12:07.435Z,6.311036789297659
2022-11-02T23:18:36.321Z,6.953177257525083
2022-11-02T23:25:18.890Z,6.287625418060201
2022-11-02T23:31:53.504Z,6.301003344481606
2022-11-02T23:38:38.620Z,5.745819397993311
2022-11-02T23:45:23.751Z,5.508361204013378
2022-11-02T23:58:02.569Z,4.444816053511706
